KHRI

Hermiston Municipal Airport

Hermiston, Oregon, USA
METAR KHRI 151853Z AUTO 00000KT 10SM OVC007 01/M02 A2969 RMK AO2 SLP057 T00111017
Observed Flight Rules
Feb-15 @ 18:53 UTC (18 minutes ago) Instrument Flight Rules
Visibility Clouds
10 miles
  • Overcast at 700' AGL
Temperatures Readings
Current 1°C / 34°F
Dewpoint -2°C / 28°F
Humidity 81%
Altimeter 29.69" Hg
Pressure 1005.7 hPa
Elevation 195
METAR KHRI 151853Z AUTO 00000KT 10SM OVC007 01/M02 A2969 RMK AO2 SLP057 T00111017
Observed Flight Rules
Feb-15 @ 18:53 UTC
(18 minutes ago)
IFR
Clouds
  • Overcast at 700' AGL
Temperature Dewpoint
1°C / 34°F -2°C / 28°F
Humidity Altimeter Pressure
81% 29.69" Hg 1005.7 hPa